Time;durP1;ratioP1;P1;durP2;ratioP2;P2;SDS_P1;SDS_P2;PMS_P1;PMS_P2;Temp;Humidity;BMP_temperature;BMP_pressure;BME280_temperature;BME280_humidity;BME280_pressure;Samples;Min_cycle;Max_cycle;Signal;HPM_P1;HPM_P2
2023/01/21 00:01:28;;;;;;;301.20;47.87;;;;;;;-145.18;100.00;114074.00;5057695;28;20017;-72
2023/01/21 00:03:53;;;;;;;296.67;46.40;;;;;;;-145.18;100.00;114074.00;5059856;28;20374;-72
2023/01/21 00:06:19;;;;;;;292.30;46.67;;;;;;;1.82;100.00;147905.59;5067852;28;20111;-72
2023/01/21 00:08:44;;;;;;;277.20;45.67;;;;;;;-145.18;100.00;147905.59;5061979;28;20074;-72
2023/01/21 00:11:13;;;;;;;300.33;45.97;;;;;;;;;;5060543;28;20028;-72
2023/01/21 00:13:38;;;;;;;278.93;45.50;;;;;;;-145.18;100.00;114074.00;5064542;28;20028;-72
2023/01/21 00:16:04;;;;;;;298.00;46.87;;;;;;;-145.18;100.00;114074.00;5068865;28;20364;-72
2023/01/21 00:18:30;;;;;;;286.87;46.73;;;;;;;-145.18;100.00;114074.00;5060115;28;20032;-72
2023/01/21 00:20:55;;;;;;;293.63;48.83;;;;;;;1.82;100.00;147905.59;5069327;28;20020;-72
2023/01/21 00:23:21;;;;;;;305.70;49.43;;;;;;;1.82;100.00;147905.59;5062284;28;20017;-72
2023/01/21 00:25:46;;;;;;;295.87;49.33;;;;;;;1.82;100.00;147905.59;5056902;28;20067;-72
2023/01/21 00:28:12;;;;;;;302.00;49.60;;;;;;;1.82;100.00;147905.59;5071549;28;20116;-72
2023/01/21 00:30:38;;;;;;;302.80;49.20;;;;;;;1.82;100.00;147905.59;5062077;28;20372;-72
2023/01/21 00:33:03;;;;;;;296.60;47.50;;;;;;;1.82;100.00;147905.59;5071623;28;20083;-72
2023/01/21 00:35:29;;;;;;;312.23;49.20;;;;;;;1.82;100.00;147905.59;5068447;28;20421;-72
2023/01/21 00:37:54;;;;;;;289.60;47.07;;;;;;;1.82;100.00;147905.59;5070203;28;20074;-72
2023/01/21 00:40:20;;;;;;;304.80;48.10;;;;;;;1.82;100.00;147905.59;5066884;28;20044;-72
2023/01/21 00:42:45;;;;;;;292.33;47.53;;;;;;;;;;5070786;28;20423;-72
2023/01/21 00:45:11;;;;;;;308.40;46.97;;;;;;;1.82;100.00;147905.59;5069344;28;20031;-72
2023/01/21 00:47:36;;;;;;;320.67;48.50;;;;;;;1.82;100.00;147905.59;5066497;28;20029;-72
2023/01/21 00:50:02;;;;;;;328.77;49.07;;;;;;;1.82;100.00;147905.59;5060648;28;20040;-72
2023/01/21 00:52:27;;;;;;;326.33;47.23;;;;;;;;;;5068012;28;20675;-72
2023/01/21 00:54:53;;;;;;;317.57;48.30;;;;;;;1.82;100.00;147905.59;5054881;28;20053;-72
2023/01/21 00:57:18;;;;;;;342.70;50.77;;;;;;;1.82;100.00;147905.59;5057725;28;20104;-72
2023/01/21 00:59:44;;;;;;;321.87;51.43;;;;;;;1.82;100.00;147905.59;5064870;28;20025;-72
2023/01/21 01:02:09;;;;;;;324.23;50.13;;;;;;;1.82;100.00;147905.59;5064061;28;20036;-72
2023/01/21 01:04:35;;;;;;;325.23;49.63;;;;;;;1.82;100.00;147905.59;5062621;28;20063;-72
2023/01/21 01:07:01;;;;;;;317.10;48.57;;;;;;;1.82;100.00;147905.59;5059757;28;20427;-72
2023/01/21 01:09:26;;;;;;;345.33;52.40;;;;;;;1.82;100.00;147905.59;5056653;28;20396;-72
2023/01/21 01:11:51;;;;;;;328.83;51.37;;;;;;;1.82;100.00;147905.59;5057739;28;20049;-72
2023/01/21 01:14:17;;;;;;;340.90;51.57;;;;;;;1.82;100.00;147905.59;5059217;28;20023;-72
2023/01/21 01:16:42;;;;;;;324.60;50.93;;;;;;;1.82;100.00;147905.59;5062534;28;20032;-72
2023/01/21 01:19:09;;;;;;;334.07;51.17;;;;;;;1.82;100.00;147905.59;5055848;28;20039;-72
2023/01/21 01:21:35;;;;;;;355.40;51.07;;;;;;;1.82;100.00;147905.59;5058525;28;20039;-72
2023/01/21 01:24:02;;;;;;;351.23;51.80;;;;;;;1.82;100.00;147905.59;5058486;28;20283;-72
2023/01/21 01:26:28;;;;;;;358.73;52.50;;;;;;;1.82;100.00;147905.59;5056408;28;20036;-72
2023/01/21 01:28:54;;;;;;;351.23;49.70;;;;;;;1.82;100.00;147905.59;5056245;28;20337;-72
2023/01/21 01:31:19;;;;;;;355.77;53.10;;;;;;;1.82;100.00;147905.59;5067627;28;20278;-72
2023/01/21 01:33:45;;;;;;;344.07;50.23;;;;;;;1.82;100.00;147905.59;5070911;28;20365;-72
2023/01/21 01:36:24;;;;;;;356.70;52.60;;;;;;;1.82;100.00;147905.59;5059451;28;20032;-72
2023/01/21 01:38:51;;;;;;;341.97;49.67;;;;;;;1.82;100.00;147905.59;5059138;28;20287;-72
2023/01/21 01:41:19;;;;;;;336.60;51.30;;;;;;;1.82;100.00;147905.59;5061632;28;20729;-72
2023/01/21 01:43:47;;;;;;;346.63;52.73;;;;;;;1.82;100.00;147905.59;5057657;28;20593;-72
2023/01/21 01:46:13;;;;;;;372.50;54.77;;;;;;;1.82;100.00;147905.59;5067695;28;20736;-72
2023/01/21 01:48:42;;;;;;;342.67;53.67;;;;;;;1.82;100.00;147905.59;5061596;28;20352;-72
2023/01/21 01:51:08;;;;;;;362.10;55.10;;;;;;;1.82;100.00;147905.59;5055875;28;20037;-72
2023/01/21 01:53:39;;;;;;;379.20;52.37;;;;;;;1.82;100.00;147905.59;5062083;28;20279;-72
2023/01/21 01:56:04;;;;;;;352.97;49.70;;;;;;;1.82;100.00;147905.59;5057142;28;20039;-72
2023/01/21 01:58:31;;;;;;;346.33;51.90;;;;;;;1.82;100.00;147905.59;5061723;28;20028;-72
2023/01/21 02:00:58;;;;;;;327.07;49.27;;;;;;;1.82;100.00;147905.59;5054477;28;20495;-71
2023/01/21 02:03:44;;;;;;;327.13;48.80;;;;;;;1.82;100.00;147905.59;5058801;28;20479;-72
2023/01/21 02:06:14;;;;;;;320.67;47.73;;;;;;;1.82;100.00;147905.59;5056041;28;20052;-71
2023/01/21 02:08:41;;;;;;;308.17;46.30;;;;;;;1.82;100.00;147905.59;5055749;28;20052;-72
2023/01/21 02:11:11;;;;;;;321.47;47.83;;;;;;;1.82;100.00;147905.59;5061813;28;20438;-71
2023/01/21 02:13:37;;;;;;;316.27;46.70;;;;;;;1.82;100.00;147905.59;5057466;28;20361;-71
2023/01/21 02:16:12;;;;;;;305.40;46.97;;;;;;;1.82;100.00;147905.59;5058466;28;20040;-71
2023/01/21 02:18:45;;;;;;;308.83;48.57;;;;;;;1.82;100.00;147905.59;5067391;28;20108;-72
2023/01/21 02:21:13;;;;;;;322.43;50.47;;;;;;;1.82;100.00;147905.59;5058549;28;20045;-71
2023/01/21 02:24:09;;;;;;;338.23;53.80;;;;;;;1.82;100.00;147905.59;5051056;28;20029;-72
2023/01/21 02:26:40;;;;;;;300.17;50.83;;;;;;;1.82;100.00;147905.59;5060404;28;20079;-72
2023/01/21 02:29:08;;;;;;;282.75;50.13;;;;;;;1.82;100.00;147905.59;5056618;28;20391;-71
2023/01/21 02:31:54;;;;;;;315.00;51.57;;;;;;;1.82;100.00;147905.59;5059906;28;20415;-71
2023/01/21 02:34:42;;;;;;;290.03;49.27;;;;;;;1.82;100.00;147905.59;5056415;28;20036;-71
2023/01/21 02:37:21;;;;;;;274.37;47.90;;;;;;;1.82;100.00;147905.59;5066792;28;20043;-72
2023/01/21 02:40:05;;;;;;;265.77;48.10;;;;;;;1.82;100.00;147905.59;5051527;28;20384;-71
2023/01/21 02:42:44;;;;;;;265.63;46.40;;;;;;;1.82;100.00;147905.59;5052296;28;20028;-72
2023/01/21 02:45:15;;;;;;;250.27;46.33;;;;;;;1.82;100.00;147905.59;5058273;28;20028;-71
2023/01/21 02:48:04;;;;;;;270.67;48.05;;;;;;;1.82;100.00;147905.59;5058099;28;20028;-69
2023/01/21 02:50:34;;;;;;;260.80;45.27;;;;;;;1.82;100.00;147905.59;5054184;28;20086;-72
2023/01/21 02:53:01;;;;;;;250.80;45.70;;;;;;;1.82;100.00;147905.59;5061330;28;20021;-71
2023/01/21 02:55:31;;;;;;;244.90;45.23;;;;;;;1.82;100.00;147905.59;5060516;28;20032;-71
2023/01/21 02:58:02;;;;;;;258.77;46.03;;;;;;;1.82;100.00;147905.59;5059955;28;20078;-71
2023/01/21 03:00:45;;;;;;;271.33;45.83;;;;;;;1.82;100.00;147905.59;5066840;28;20468;-71
2023/01/21 03:03:42;;;;;;;255.13;44.43;;;;;;;1.82;100.00;147905.59;5053303;28;20227;-71
2023/01/21 03:06:47;;;;;;;238.63;44.40;;;;;;;1.82;100.00;147905.59;5046437;28;20036;-71
2023/01/21 03:09:17;;;;;;;251.27;43.87;;;;;;;1.82;100.00;147905.59;5066300;28;20036;-72
2023/01/21 03:11:48;;;;;;;234.23;42.97;;;;;;;1.82;100.00;147905.59;5064367;28;20025;-69
2023/01/21 03:17:27;;;;;;;223.53;39.30;;;;;;;-145.18;100.00;114074.00;5055215;28;20059;-71
2023/01/21 03:20:13;;;;;;;217.80;41.17;;;;;;;1.82;100.00;147905.59;5054769;28;20038;-71
2023/01/21 03:22:39;;;;;;;197.60;39.20;;;;;;;1.82;100.00;147905.59;5053644;28;20437;-71
2023/01/21 03:25:07;;;;;;;197.13;38.70;;;;;;;1.82;100.00;147905.59;5066358;28;20081;-69
2023/01/21 03:27:35;;;;;;;194.50;39.20;;;;;;;1.82;100.00;147905.59;5055394;28;20016;-69
2023/01/21 03:30:21;;;;;;;182.60;38.30;;;;;;;1.82;100.00;147905.59;5062851;28;20028;-69
2023/01/21 03:32:49;;;;;;;186.00;38.87;;;;;;;1.82;100.00;147905.59;5056119;28;20025;-69
2023/01/21 03:35:38;;;;;;;179.23;35.60;;;;;;;1.82;100.00;147905.59;5056975;28;20035;-69
2023/01/21 03:38:10;;;;;;;170.77;36.57;;;;;;;1.82;100.00;147905.59;5054305;28;20105;-69
2023/01/21 03:40:46;;;;;;;165.75;37.03;;;;;;;1.82;100.00;147905.59;5060109;28;20032;-69
2023/01/21 03:43:12;;;;;;;169.07;35.77;;;;;;;1.82;100.00;147905.59;5058415;28;20036;-68
2023/01/21 03:45:46;;;;;;;146.53;35.23;;;;;;;1.82;100.00;147905.59;5062154;28;20032;-68
2023/01/21 03:48:25;;;;;;;141.40;32.20;;;;;;;1.82;100.00;147905.59;5056649;28;20029;-68
2023/01/21 03:50:58;;;;;;;148.70;34.33;;;;;;;1.82;100.00;147905.59;5055996;28;20056;-68
2023/01/21 03:53:24;;;;;;;143.97;31.13;;;;;;;1.82;100.00;147905.59;5060999;28;20021;-69
2023/01/21 03:55:50;;;;;;;136.47;32.90;;;;;;;1.82;100.00;147905.59;5056658;28;20033;-70
2023/01/21 03:58:16;;;;;;;136.00;33.37;;;;;;;1.82;100.00;147905.59;5064976;28;20032;-70
2023/01/21 04:00:41;;;;;;;122.30;30.67;;;;;;;1.82;100.00;147905.59;5060590;28;20365;-70
2023/01/21 04:03:06;;;;;;;122.97;31.50;;;;;;;1.82;100.00;147905.59;5063344;28;20032;-70
2023/01/21 04:05:32;;;;;;;110.30;30.27;;;;;;;1.82;100.00;147905.59;5058761;28;20032;-70
2023/01/21 04:07:57;;;;;;;117.43;29.47;;;;;;;1.82;100.00;147905.59;5067422;28;20017;-70
2023/01/21 04:10:22;;;;;;;112.30;29.77;;;;;;;-145.18;100.00;114074.00;5071210;28;20029;-70
2023/01/21 04:12:48;;;;;;;117.77;31.03;;;;;;;1.82;100.00;147905.59;5061580;28;20020;-70
2023/01/21 04:15:13;;;;;;;116.27;29.40;;;;;;;1.82;100.00;147905.59;5069599;28;20025;-70
2023/01/21 04:17:39;;;;;;;113.00;30.23;;;;;;;-145.18;100.00;114074.00;5061193;28;20017;-70
2023/01/21 04:20:05;;;;;;;111.70;30.27;;;;;;;-145.18;100.00;147905.59;5064375;28;20492;-70
2023/01/21 04:22:31;;;;;;;100.13;27.93;;;;;;;1.82;100.00;147905.59;5067106;28;20036;-70
2023/01/21 04:24:56;;;;;;;98.90;27.80;;;;;;;1.82;100.00;147905.59;5067828;28;20016;-70
2023/01/21 04:27:21;;;;;;;113.03;30.23;;;;;;;1.82;100.00;147905.59;5059015;28;20032;-70
2023/01/21 04:29:47;;;;;;;111.40;28.67;;;;;;;1.82;100.00;147905.59;5057804;28;20127;-70
2023/01/21 04:32:12;;;;;;;105.43;28.30;;;;;;;1.82;100.00;147905.59;5060068;28;20491;-70
2023/01/21 04:34:37;;;;;;;103.13;28.53;;;;;;;1.82;100.00;147905.59;5062260;28;20025;-70
2023/01/21 04:37:03;;;;;;;102.43;28.10;;;;;;;1.82;100.00;147905.59;5060052;28;20174;-70
2023/01/21 04:39:28;;;;;;;107.50;29.63;;;;;;;1.82;100.00;147905.59;5062706;28;20025;-70
2023/01/21 04:41:53;;;;;;;108.93;29.57;;;;;;;1.82;100.00;147905.59;5058089;28;20032;-70
2023/01/21 04:44:19;;;;;;;104.40;28.53;;;;;;;1.82;100.00;147905.59;5059362;28;20056;-70
2023/01/21 04:46:44;;;;;;;89.27;25.73;;;;;;;1.82;100.00;147905.59;5064991;28;20020;-70
2023/01/21 04:49:09;;;;;;;92.03;25.67;;;;;;;1.82;100.00;147905.59;5061181;28;20543;-70
2023/01/21 04:51:35;;;;;;;98.33;27.03;;;;;;;1.82;100.00;147905.59;5056543;28;20536;-70
2023/01/21 04:54:00;;;;;;;84.77;26.57;;;;;;;1.82;100.00;147905.59;5056715;28;20067;-69
2023/01/21 04:56:25;;;;;;;90.37;26.90;;;;;;;1.82;100.00;147905.59;5058780;28;20029;-70
2023/01/21 04:58:51;;;;;;;89.87;26.00;;;;;;;;;;5058172;28;20025;-70
2023/01/21 05:01:16;;;;;;;91.73;27.23;;;;;;;1.82;100.00;147905.59;5061661;28;20492;-70
2023/01/21 05:03:41;;;;;;;94.83;27.13;;;;;;;1.82;100.00;147905.59;5064813;28;20021;-70
2023/01/21 05:06:07;;;;;;;95.03;26.47;;;;;;;1.82;100.00;147905.59;5060926;28;20036;-70
2023/01/21 05:08:32;;;;;;;93.23;26.47;;;;;;;1.82;100.00;147905.59;5064487;28;20021;-70
2023/01/21 05:10:58;;;;;;;98.30;25.57;;;;;;;1.82;100.00;147905.59;5057595;28;20024;-70
2023/01/21 05:13:23;;;;;;;112.40;27.63;;;;;;;1.82;100.00;147905.59;5056610;28;20055;-72
2023/01/21 05:15:48;;;;;;;112.27;28.37;;;;;;;1.82;100.00;147905.59;5061601;28;20020;-72
2023/01/21 05:18:14;;;;;;;122.90;30.07;;;;;;;1.82;100.00;147905.59;5057052;28;20036;-72
2023/01/21 05:20:39;;;;;;;112.83;28.60;;;;;;;1.82;100.00;147905.59;5065565;28;20135;-72
2023/01/21 05:23:04;;;;;;;122.83;28.77;;;;;;;1.82;100.00;147905.59;5057295;28;20029;-72
2023/01/21 05:25:30;;;;;;;122.50;30.77;;;;;;;1.82;100.00;147905.59;5061092;28;20031;-72
2023/01/21 05:27:55;;;;;;;123.50;28.53;;;;;;;1.82;100.00;147905.59;5067638;28;20030;-72
2023/01/21 05:30:21;;;;;;;125.80;29.80;;;;;;;1.82;100.00;147905.59;5054691;28;20040;-71
2023/01/21 05:32:51;;;;;;;106.13;27.87;;;;;;;1.82;100.00;147905.59;5063195;28;20025;-70
2023/01/21 05:35:19;;;;;;;117.43;28.93;;;;;;;1.82;100.00;147905.59;5057996;28;20016;-70
2023/01/21 05:37:46;;;;;;;110.23;29.10;;;;;;;;;;5065906;28;20029;-70
2023/01/21 05:40:11;;;;;;;112.30;28.10;;;;;;;1.82;100.00;147905.59;5054557;28;20036;-70
2023/01/21 05:42:37;;;;;;;103.17;28.83;;;;;;;1.82;100.00;147905.59;5059453;28;20031;-70
2023/01/21 05:45:02;;;;;;;105.27;27.43;;;;;;;-145.18;100.00;114074.00;5062123;28;20063;-70
2023/01/21 05:47:28;;;;;;;92.67;27.43;;;;;;;1.82;100.00;147905.59;5057402;28;20021;-70
2023/01/21 05:49:53;;;;;;;100.00;27.70;;;;;;;1.82;100.00;147905.59;5053778;28;20021;-70
2023/01/21 05:52:18;;;;;;;97.83;26.23;;;;;;;-145.18;100.00;114074.00;5063508;28;20459;-70
2023/01/21 05:54:44;;;;;;;98.83;27.53;;;;;;;1.82;100.00;147905.59;5056714;28;20029;-70
2023/01/21 05:57:09;;;;;;;95.70;28.53;;;;;;;1.82;100.00;147905.59;5064364;28;20100;-70
2023/01/21 05:59:35;;;;;;;91.03;26.60;;;;;;;1.82;100.00;147905.59;5058352;28;20024;-70
2023/01/21 06:02:00;;;;;;;85.93;25.47;;;;;;;-145.18;100.00;114074.00;5065340;28;20021;-70
2023/01/21 06:04:29;;;;;;;81.53;26.40;;;;;;;1.82;100.00;147905.59;5055577;28;20032;-70
2023/01/21 06:06:55;;;;;;;79.37;24.60;;;;;;;1.82;100.00;147905.59;5061805;28;20186;-70
2023/01/21 06:09:20;;;;;;;75.33;24.90;;;;;;;1.82;100.00;147905.59;5056238;28;20036;-70
2023/01/21 06:11:46;;;;;;;86.63;26.43;;;;;;;1.82;100.00;147905.59;5056568;28;20025;-70
2023/01/21 06:14:11;;;;;;;70.73;24.03;;;;;;;1.82;100.00;147905.59;5056817;28;20040;-70
2023/01/21 06:16:36;;;;;;;76.87;24.73;;;;;;;1.82;100.00;147905.59;5064887;28;20081;-70
2023/01/21 06:19:02;;;;;;;80.87;25.77;;;;;;;1.82;100.00;147905.59;5069090;28;20368;-70
2023/01/21 06:21:27;;;;;;;79.97;24.73;;;;;;;1.82;100.00;147905.59;5062987;28;20120;-70
2023/01/21 06:23:53;;;;;;;83.90;25.77;;;;;;;1.82;100.00;147905.59;5060560;28;20434;-70
2023/01/21 06:26:18;;;;;;;79.30;24.97;;;;;;;1.82;100.00;147905.59;5059352;28;20476;-70
2023/01/21 06:28:43;;;;;;;82.70;26.40;;;;;;;1.82;100.00;147905.59;5053853;28;20522;-70
2023/01/21 06:31:09;;;;;;;91.60;26.00;;;;;;;1.82;100.00;147905.59;5062937;28;20087;-70
2023/01/21 06:33:34;;;;;;;96.90;28.30;;;;;;;1.82;100.00;147905.59;5056695;28;20059;-70
2023/01/21 06:35:59;;;;;;;94.10;27.43;;;;;;;1.82;100.00;147905.59;5055705;28;20502;-70
2023/01/21 06:38:25;;;;;;;99.33;27.90;;;;;;;1.82;100.00;147905.59;5061957;28;20047;-70
2023/01/21 06:40:50;;;;;;;100.60;28.50;;;;;;;1.82;100.00;147905.59;5059871;28;20111;-70
2023/01/21 06:43:15;;;;;;;100.17;28.30;;;;;;;1.82;100.00;147905.59;5052083;28;20033;-70
2023/01/21 06:45:41;;;;;;;115.27;30.60;;;;;;;1.82;100.00;147905.59;5059305;28;20024;-70
2023/01/21 06:48:06;;;;;;;113.60;30.43;;;;;;;1.82;100.00;147905.59;5052536;28;20029;-70
2023/01/21 06:50:31;;;;;;;116.83;30.07;;;;;;;1.82;100.00;147905.59;5054771;28;20024;-71
2023/01/21 06:52:57;;;;;;;119.40;32.83;;;;;;;1.82;100.00;147905.59;5066983;28;20028;-71
2023/01/21 06:55:22;;;;;;;127.33;33.20;;;;;;;1.82;100.00;147905.59;5058612;28;20504;-71
2023/01/21 06:57:47;;;;;;;123.03;33.00;;;;;;;1.82;100.00;147905.59;5068661;28;20502;-71
2023/01/21 07:00:13;;;;;;;133.90;34.33;;;;;;;1.82;100.00;147905.59;5062439;28;20016;-71
2023/01/21 07:02:38;;;;;;;113.87;32.57;;;;;;;1.82;100.00;147905.59;5058437;28;20029;-71
2023/01/21 07:05:05;;;;;;;117.10;31.63;;;;;;;1.82;100.00;147905.59;5058936;28;20036;-71
2023/01/21 07:07:30;;;;;;;104.60;30.60;;;;;;;1.82;100.00;147905.59;5060417;28;20251;-71
2023/01/21 07:09:55;;;;;;;107.53;30.00;;;;;;;1.82;100.00;147905.59;5059997;28;20024;-71
2023/01/21 07:12:21;;;;;;;104.57;30.30;;;;;;;1.82;100.00;147905.59;5069622;28;20387;-71
2023/01/21 07:14:46;;;;;;;109.33;31.60;;;;;;;1.82;100.00;147905.59;5055404;28;20037;-71
2023/01/21 07:17:11;;;;;;;116.70;32.47;;;;;;;1.82;100.00;147905.59;5053971;28;20029;-71
2023/01/21 07:19:37;;;;;;;106.17;30.07;;;;;;;1.82;100.00;147905.59;5060133;28;20428;-70
2023/01/21 07:22:02;;;;;;;98.27;29.00;;;;;;;1.82;100.00;147905.59;5057916;28;20054;-70
2023/01/21 07:24:28;;;;;;;97.77;29.33;;;;;;;1.82;100.00;147905.59;5054095;28;20051;-70
2023/01/21 07:26:53;;;;;;;99.47;28.63;;;;;;;;;;5054230;28;20013;-70
2023/01/21 07:29:19;;;;;;;100.10;29.93;;;;;;;1.82;100.00;147905.59;5055140;28;20033;-70
2023/01/21 07:31:44;;;;;;;97.00;29.00;;;;;;;1.82;100.00;147905.59;5065975;28;20529;-70
2023/01/21 07:34:10;;;;;;;94.20;28.63;;;;;;;1.82;100.00;147905.59;5057842;28;20083;-70
2023/01/21 07:36:35;;;;;;;91.80;27.77;;;;;;;1.82;100.00;147905.59;5057957;28;20397;-70
2023/01/21 07:39:00;;;;;;;90.13;29.20;;;;;;;1.82;100.00;147905.59;5054401;28;20021;-70
2023/01/21 07:41:26;;;;;;;90.93;29.03;;;;;;;1.82;100.00;147905.59;5060823;28;20426;-70
2023/01/21 07:43:51;;;;;;;91.93;29.03;;;;;;;1.82;100.00;147905.59;5060290;28;20024;-70
2023/01/21 07:46:21;;;;;;;97.77;29.47;;;;;;;1.82;100.00;147905.59;5055171;28;20048;-70
2023/01/21 07:48:48;;;;;;;99.57;29.13;;;;;;;1.82;100.00;147905.59;5058324;28;20025;-70
2023/01/21 07:51:13;;;;;;;99.23;28.93;;;;;;;1.82;100.00;147905.59;5056802;28;20031;-71
2023/01/21 07:53:39;;;;;;;90.83;30.20;;;;;;;1.82;100.00;147905.59;5058693;28;20029;-70
2023/01/21 07:56:06;;;;;;;108.40;30.67;;;;;;;1.82;100.00;147905.59;5056498;28;20064;-70
2023/01/21 07:58:32;;;;;;;99.87;31.27;;;;;;;1.82;100.00;147905.59;5064650;28;20039;-70
2023/01/21 08:00:57;;;;;;;92.67;30.87;;;;;;;1.82;100.00;147905.59;5059515;28;20025;-71
2023/01/21 08:03:24;;;;;;;102.40;29.43;;;;;;;1.82;100.00;147905.59;5066956;28;20029;-71
2023/01/21 08:05:51;;;;;;;93.23;30.73;;;;;;;1.82;100.00;147905.59;5060681;28;20115;-71
2023/01/21 08:08:17;;;;;;;93.10;30.33;;;;;;;1.82;100.00;147905.59;5060848;28;20052;-71
2023/01/21 08:10:49;;;;;;;95.03;29.07;;;;;;;1.82;100.00;147905.59;5057387;28;20049;-71
2023/01/21 08:13:14;;;;;;;89.47;30.80;;;;;;;1.82;100.00;147905.59;5065528;28;20472;-71
2023/01/21 08:15:39;;;;;;;84.77;29.77;;;;;;;1.82;100.00;147905.59;5054439;28;20125;-71
2023/01/21 08:18:05;;;;;;;86.73;30.33;;;;;;;1.82;100.00;147905.59;5056637;28;20129;-71
2023/01/21 08:20:31;;;;;;;87.37;29.53;;;;;;;1.82;100.00;147905.59;5053980;28;20034;-71
2023/01/21 08:22:59;;;;;;;77.97;27.83;;;;;;;1.82;100.00;147905.59;5059270;28;20426;-71
2023/01/21 08:25:24;;;;;;;80.60;27.97;;;;;;;1.82;100.00;147905.59;5060193;28;20043;-70
2023/01/21 08:27:50;;;;;;;81.80;29.03;;;;;;;1.82;100.00;147905.59;5071133;28;20030;-70
2023/01/21 08:30:15;;;;;;;78.70;27.83;;;;;;;1.82;100.00;147905.59;5068428;28;20178;-70
2023/01/21 08:32:41;;;;;;;83.53;27.47;;;;;;;1.82;100.00;147905.59;5065308;28;20045;-71
2023/01/21 08:35:07;;;;;;;78.37;26.97;;;;;;;1.82;100.00;147905.59;5064348;28;20418;-71
2023/01/21 08:37:32;;;;;;;81.27;27.07;;;;;;;1.82;100.00;147905.59;5053331;28;20021;-70
2023/01/21 08:39:57;;;;;;;67.50;22.77;;;;;;;1.82;100.00;147905.59;5066483;28;20035;-70
2023/01/21 08:42:23;;;;;;;69.63;25.93;;;;;;;1.82;100.00;147905.59;5064355;28;20516;-70
2023/01/21 08:44:50;;;;;;;72.50;26.53;;;;;;;1.82;100.00;147905.59;5054280;28;20063;-70
2023/01/21 08:47:16;;;;;;;73.50;26.17;;;;;;;1.82;100.00;147905.59;5054985;28;20453;-71
2023/01/21 08:49:42;;;;;;;67.03;24.67;;;;;;;1.82;100.00;147905.59;5060390;28;20107;-70
2023/01/21 08:52:07;;;;;;;66.07;24.20;;;;;;;1.82;100.00;147905.59;5066964;28;20166;-70
2023/01/21 08:54:33;;;;;;;63.60;24.83;;;;;;;1.82;100.00;147905.59;5061877;28;20063;-70
2023/01/21 08:56:58;;;;;;;65.67;24.73;;;;;;;1.82;100.00;147905.59;5069231;28;20029;-71
2023/01/21 08:59:27;;;;;;;67.33;23.53;;;;;;;1.82;100.00;147905.59;5059964;28;20062;-70
2023/01/21 09:01:53;;;;;;;71.17;25.33;;;;;;;1.82;100.00;147905.59;5060532;28;20462;-70
2023/01/21 09:04:19;;;;;;;63.90;24.80;;;;;;;1.82;100.00;147905.59;5055904;28;20036;-71
2023/01/21 09:06:44;;;;;;;67.63;26.23;;;;;;;1.82;100.00;147905.59;5065976;28;20111;-71
2023/01/21 09:09:10;;;;;;;66.97;26.60;;;;;;;1.82;100.00;147905.59;5063110;28;20041;-71
2023/01/21 09:11:35;;;;;;;70.60;27.17;;;;;;;-145.18;100.00;147905.59;5063377;28;20086;-70
2023/01/21 09:14:02;;;;;;;63.60;24.13;;;;;;;1.82;100.00;147905.59;5058421;28;20032;-70
2023/01/21 09:16:30;;;;;;;66.27;24.70;;;;;;;1.82;100.00;147905.59;5054969;28;20052;-71
2023/01/21 09:18:56;;;;;;;58.77;23.40;;;;;;;1.82;100.00;147905.59;5066267;28;20039;-70
2023/01/21 09:21:22;;;;;;;57.17;24.17;;;;;;;1.82;100.00;147905.59;5058401;28;20074;-70
2023/01/21 09:23:47;;;;;;;54.30;23.13;;;;;;;1.82;100.00;147905.59;5058959;28;20020;-70
2023/01/21 09:26:16;;;;;;;61.03;23.57;;;;;;;1.82;100.00;147905.59;5060429;28;20115;-70
2023/01/21 09:28:43;;;;;;;53.53;23.23;;;;;;;1.82;100.00;147905.59;5062318;28;20499;-70
2023/01/21 09:31:15;;;;;;;56.43;23.37;;;;;;;1.82;100.00;147905.59;5054201;28;20025;-70
2023/01/21 09:33:43;;;;;;;53.70;23.23;;;;;;;1.82;100.00;147905.59;5051770;28;20389;-70
2023/01/21 09:36:13;;;;;;;63.93;23.80;;;;;;;1.82;100.00;147905.59;5064068;28;20032;-70
2023/01/21 09:38:43;;;;;;;53.97;21.87;;;;;;;1.82;100.00;147905.59;5062339;28;20024;-70
2023/01/21 09:41:29;;;;;;;59.37;23.17;;;;;;;1.82;100.00;147905.59;5062890;28;20067;-70
2023/01/21 09:44:10;;;;;;;55.63;22.20;;;;;;;1.82;100.00;147905.59;5066173;28;20074;-70
2023/01/21 09:46:45;;;;;;;56.60;22.10;;;;;;;1.82;100.00;147905.59;5056508;28;20562;-70
2023/01/21 09:49:17;;;;;;;51.63;22.20;;;;;;;1.82;100.00;147905.59;5059814;28;20036;-70
2023/01/21 09:52:02;;;;;;;52.50;21.30;;;;;;;1.82;100.00;147905.59;5064658;28;20104;-70
2023/01/21 09:54:30;;;;;;;51.57;21.53;;;;;;;1.82;100.00;147905.59;5057727;28;20028;-70
2023/01/21 09:57:14;;;;;;;51.70;21.50;;;;;;;1.82;100.00;147905.59;5063525;28;20029;-70
2023/01/21 10:00:08;;;;;;;48.73;20.80;;;;;;;1.82;100.00;147905.59;5056239;28;20032;-70
2023/01/21 10:02:55;;;;;;;48.63;20.83;;;;;;;1.82;100.00;147905.59;5032104;28;20056;-70
2023/01/21 10:05:23;;;;;;;56.30;23.03;;;;;;;1.82;100.00;147905.59;5059107;28;20523;-70
2023/01/21 10:08:10;;;;;;;53.27;21.63;;;;;;;-145.18;100.00;147905.59;5058723;28;20138;-70
2023/01/21 10:10:49;;;;;;;55.43;21.90;;;;;;;-145.18;100.00;114074.00;5057517;28;20020;-71
2023/01/21 10:13:21;;;;;;;54.37;20.40;;;;;;;1.82;100.00;147905.59;5054826;28;20029;-70
2023/01/21 10:15:59;;;;;;;53.90;21.25;;;;;;;1.82;100.00;147905.59;5059755;28;20036;-70
2023/01/21 10:18:30;;;;;;;59.40;22.70;;;;;;;1.82;100.00;147905.59;5060732;28;20033;-71
2023/01/21 10:21:03;;;;;;;59.17;24.25;;;;;;;1.82;100.00;147905.59;5055195;28;20477;-70
2023/01/21 10:23:46;;;;;;;59.07;23.47;;;;;;;-145.18;100.00;114074.00;5058711;28;20025;-70
2023/01/21 10:26:13;;;;;;;57.70;22.80;;;;;;;1.82;100.00;147905.59;5051011;28;20029;-70
2023/01/21 10:28:49;;;;;;;56.50;22.20;;;;;;;1.82;100.00;147905.59;5052387;28;20497;-71
2023/01/21 10:31:27;;;;;;;53.70;21.60;;;;;;;1.82;100.00;147905.59;5064987;28;20020;-71
2023/01/21 10:33:53;;;;;;;58.07;23.33;;;;;;;1.82;100.00;147905.59;5056117;28;20095;-70
2023/01/21 10:36:34;;;;;;;54.47;22.67;;;;;;;1.82;100.00;147905.59;5056716;28;20024;-71
2023/01/21 10:39:22;;;;;;;42.43;16.93;;;;;;;-145.18;100.00;114074.00;5062604;28;20044;-70
2023/01/21 10:42:12;;;;;;;47.03;20.10;;;;;;;-145.18;100.00;114074.00;5058224;28;20047;-70
2023/01/21 10:44:37;;;;;;;52.57;22.40;;;;;;;1.82;100.00;147905.59;5069717;28;20488;-70
2023/01/21 10:47:10;;;;;;;52.43;19.20;;;;;;;-145.18;100.00;114074.00;5063584;28;20032;-71
2023/01/21 10:50:17;;;;;;;58.03;21.53;;;;;;;-145.18;100.00;114074.00;5059093;28;20104;-70
2023/01/21 10:52:52;;;;;;;54.87;21.57;;;;;;;-145.18;100.00;114074.00;5060927;28;20024;-70
2023/01/21 10:55:38;;;;;;;41.20;16.97;;;;;;;-145.18;100.00;114074.00;5055329;28;20052;-70
2023/01/21 10:58:17;;;;;;;49.97;19.53;;;;;;;-145.18;100.00;114074.00;5063630;28;20036;-70
2023/01/21 11:00:46;;;;;;;51.17;21.10;;;;;;;-145.18;100.00;114074.00;5054612;28;20025;-70
2023/01/21 11:03:42;;;;;;;54.90;20.83;;;;;;;-145.18;100.00;114074.00;5069204;28;20032;-70
2023/01/21 11:06:11;;;;;;;54.10;20.60;;;;;;;-145.18;100.00;114074.00;5054769;28;20389;-70
2023/01/21 11:08:38;;;;;;;59.17;23.90;;;;;;;-145.18;100.00;114074.00;5060431;28;20029;-70
2023/01/21 11:11:08;;;;;;;53.83;22.97;;;;;;;-145.18;100.00;114074.00;5052713;28;20032;-70
2023/01/21 11:13:34;;;;;;;54.03;22.90;;;;;;;-145.18;100.00;114074.00;5055421;28;20115;-70
2023/01/21 11:16:00;;;;;;;50.63;21.77;;;;;;;-145.18;100.00;60484.78;5062896;28;20031;-70